createdAt,value
2023-03-16T00:00:31.246Z,100307.97
2023-03-16T00:01:07.448Z,100307.44
2023-03-16T00:01:43.248Z,100306.31
2023-03-16T00:02:19.225Z,100314.50
2023-03-16T00:02:54.989Z,100312.06
2023-03-16T00:03:31.022Z,100313.41
2023-03-16T00:04:06.720Z,100305.53
2023-03-16T00:04:42.375Z,100311.25
2023-03-16T00:05:18.962Z,100306.09
2023-03-16T00:05:54.466Z,100306.91
2023-03-16T00:06:30.868Z,100304.44
2023-03-16T00:07:06.874Z,100305.81
2023-03-16T00:07:42.988Z,100307.72
2023-03-16T00:08:19.097Z,100306.34
2023-03-16T00:08:54.197Z,100310.16
2023-03-16T00:09:30.214Z,100300.09
2023-03-16T00:10:06.317Z,100313.97
2023-03-16T00:10:42.370Z,100310.72
2023-03-16T00:11:17.909Z,100305.25
2023-03-16T00:11:54.137Z,100312.06
2023-03-16T00:12:30.184Z,100300.38
2023-03-16T00:13:05.906Z,100309.06
2023-03-16T00:13:42.205Z,100302.53
2023-03-16T00:14:18.021Z,100311.25
2023-03-16T00:14:53.504Z,100303.63
2023-03-16T00:15:29.129Z,100307.16
2023-03-16T00:16:05.558Z,100304.72
2023-03-16T00:16:41.542Z,100303.09
2023-03-16T00:17:17.476Z,100303.63
2023-03-16T00:17:53.384Z,100304.72
2023-03-16T00:18:29.416Z,100302.00
2023-03-16T00:19:05.285Z,100304.19
2023-03-16T00:19:41.327Z,100297.09
2023-03-16T00:20:16.679Z,100300.91
2023-03-16T00:20:53.225Z,100298.19
2023-03-16T00:21:29.134Z,100300.91
2023-03-16T00:22:05.168Z,100298.44
2023-03-16T00:22:41.333Z,100302.53
2023-03-16T00:23:17.400Z,100302.81
2023-03-16T00:23:53.670Z,100308.53
2023-03-16T00:24:29.400Z,100306.91
2023-03-16T00:25:04.705Z,100305.25
2023-03-16T00:25:41.298Z,100304.72
2023-03-16T00:26:17.032Z,100310.97
2023-03-16T00:26:53.428Z,100306.91
2023-03-16T00:27:29.102Z,100305.81
2023-03-16T00:28:05.370Z,100309.63
2023-03-16T00:28:42.218Z,100311.25
2023-03-16T00:29:17.715Z,100311.53
2023-03-16T00:29:53.195Z,100302.53
2023-03-16T00:30:29.654Z,100306.91
2023-03-16T00:31:05.891Z,100305.25
2023-03-16T00:31:42.147Z,100309.63
2023-03-16T00:32:18.292Z,100305.53
2023-03-16T00:32:54.331Z,100304.72
2023-03-16T00:33:29.917Z,100306.91
2023-03-16T00:34:06.113Z,100304.19
2023-03-16T00:34:42.052Z,100306.91
2023-03-16T00:35:17.460Z,100304.44
2023-03-16T00:35:53.788Z,100299.53
2023-03-16T00:36:29.530Z,100297.09
2023-03-16T00:37:05.430Z,100299.81
2023-03-16T00:37:41.496Z,100296.00
2023-03-16T00:38:17.561Z,100287.03
2023-03-16T00:38:53.621Z,100293.28
2023-03-16T00:39:30.116Z,100299.28
2023-03-16T00:40:06.159Z,100290.56
2023-03-16T00:40:41.905Z,100289.75
2023-03-16T00:41:18.534Z,100290.03
2023-03-16T00:41:54.506Z,100287.84
2023-03-16T00:42:30.637Z,100288.13
2023-03-16T00:43:06.754Z,100287.56
2023-03-16T00:43:43.081Z,100279.66
2023-03-16T00:44:20.016Z,100279.13
2023-03-16T00:44:56.281Z,100286.47
2023-03-16T00:45:32.870Z,100286.22
2023-03-16T00:46:08.817Z,100280.50
2023-03-16T00:46:44.257Z,100287.56
2023-03-16T00:47:20.665Z,100285.13
2023-03-16T00:47:56.645Z,100282.41
2023-03-16T00:48:32.842Z,100288.38
2023-03-16T00:49:09.047Z,100285.94
2023-03-16T00:49:44.580Z,100288.09
2023-03-16T00:50:20.879Z,100292.19
2023-03-16T00:50:56.813Z,100283.75
2023-03-16T00:51:31.844Z,100287.56
2023-03-16T00:52:08.180Z,100286.75
2023-03-16T00:52:43.526Z,100287.56
2023-03-16T00:53:19.912Z,100290.56
2023-03-16T00:53:56.170Z,100285.13
2023-03-16T00:54:32.062Z,100289.75
2023-03-16T00:55:07.552Z,100285.13
2023-03-16T00:55:43.713Z,100286.75
2023-03-16T00:56:19.241Z,100287.03
2023-03-16T00:56:55.745Z,100285.13
2023-03-16T00:57:31.429Z,100279.41
2023-03-16T00:58:07.528Z,100284.84
2023-03-16T00:58:43.575Z,100276.94
2023-03-16T00:59:19.447Z,100278.84
2023-03-16T00:59:55.272Z,100283.47
2023-03-16T01:00:30.969Z,100279.66
2023-03-16T01:01:06.967Z,100279.13
2023-03-16T01:01:43.447Z,100280.22
2023-03-16T01:02:19.394Z,100278.03
2023-03-16T01:02:55.419Z,100271.50
2023-03-16T01:03:31.352Z,100272.03
2023-03-16T01:04:07.689Z,100282.13
2023-03-16T01:04:43.754Z,100272.03
2023-03-16T01:05:19.722Z,100279.66
2023-03-16T01:05:55.379Z,100279.66
2023-03-16T01:06:31.476Z,100281.31
2023-03-16T01:07:07.130Z,100279.66
2023-03-16T01:07:43.620Z,100278.03
2023-03-16T01:08:19.609Z,100280.50
2023-03-16T01:08:55.630Z,100283.47
2023-03-16T01:09:31.881Z,100282.94
2023-03-16T01:10:08.268Z,100279.66
2023-03-16T01:10:43.900Z,100283.22
2023-03-16T01:11:19.350Z,100285.66
2023-03-16T01:11:55.614Z,100293.28
2023-03-16T01:12:31.299Z,100287.84
2023-03-16T01:13:07.726Z,100288.94
2023-03-16T01:13:44.037Z,100296.00
2023-03-16T01:14:20.349Z,100294.09
2023-03-16T01:14:55.514Z,100292.75
2023-03-16T01:15:31.173Z,100294.09
2023-03-16T01:16:06.778Z,100295.72
2023-03-16T01:16:43.096Z,100290.56
2023-03-16T01:17:18.869Z,100289.75
2023-03-16T01:17:54.790Z,100293.81
2023-03-16T01:18:31.309Z,100294.09
2023-03-16T01:19:07.546Z,100286.75
2023-03-16T01:19:43.558Z,100285.66
2023-03-16T01:20:19.157Z,100292.19
2023-03-16T01:20:55.232Z,100291.09
2023-03-16T01:21:31.005Z,100293.81
2023-03-16T01:22:07.348Z,100293.00
2023-03-16T01:22:43.238Z,100288.38
2023-03-16T01:23:19.974Z,100290.28
2023-03-16T01:23:56.219Z,100292.47
2023-03-16T01:24:32.215Z,100290.56
2023-03-16T01:25:07.638Z,100293.81
2023-03-16T01:25:43.406Z,100286.47
2023-03-16T01:26:19.569Z,100285.13
2023-03-16T01:26:55.319Z,100290.28
2023-03-16T01:27:31.276Z,100289.75
2023-03-16T01:28:06.815Z,100292.47
2023-03-16T01:28:43.013Z,100289.47
2023-03-16T01:29:19.122Z,100285.66
2023-03-16T01:29:55.039Z,100283.22
2023-03-16T01:30:30.607Z,100282.94
2023-03-16T01:31:06.030Z,100284.56
2023-03-16T01:31:41.967Z,100284.03
2023-03-16T01:32:17.524Z,100268.78
2023-03-16T01:32:53.960Z,100273.41
2023-03-16T01:33:30.338Z,100264.97
2023-03-16T01:34:06.528Z,100279.66
2023-03-16T01:34:42.425Z,100276.41
2023-03-16T01:35:17.833Z,100276.69
2023-03-16T01:35:53.409Z,100272.03
2023-03-16T01:36:28.780Z,100278.84
2023-03-16T01:37:04.782Z,100271.50
2023-03-16T01:37:40.884Z,100270.41
2023-03-16T01:38:16.487Z,100264.16
2023-03-16T01:38:53.021Z,100262.78
2023-03-16T01:39:29.168Z,100268.25
2023-03-16T01:40:04.852Z,100262.78
2023-03-16T01:40:40.438Z,100266.34
2023-03-16T01:41:16.334Z,100265.50
2023-03-16T01:41:52.383Z,100260.06
2023-03-16T01:42:28.345Z,100263.88
2023-03-16T01:43:04.681Z,100256.81
2023-03-16T01:43:41.348Z,100261.97
2023-03-16T01:44:16.910Z,100255.72
2023-03-16T01:44:52.839Z,100256.81
2023-03-16T01:45:28.872Z,100258.16
2023-03-16T01:46:04.281Z,100249.19
2023-03-16T01:46:39.723Z,100253.00
2023-03-16T01:47:15.840Z,100252.44
2023-03-16T01:47:51.634Z,100252.16
2023-03-16T01:48:27.469Z,100247.00
2023-03-16T01:49:03.537Z,100244.28
2023-03-16T01:49:39.605Z,100244.00
2023-03-16T01:50:15.765Z,100243.47
2023-03-16T01:50:51.348Z,100242.38
2023-03-16T01:51:26.933Z,100241.00
2023-03-16T01:52:03.043Z,100237.19
2023-03-16T01:52:38.622Z,100239.38
2023-03-16T01:53:14.848Z,100241.00
2023-03-16T01:53:51.161Z,100242.09
2023-03-16T01:54:27.136Z,100231.75
2023-03-16T01:55:03.438Z,100236.66
2023-03-16T01:55:39.875Z,100231.22
2023-03-16T01:56:15.688Z,100235.56
2023-03-16T01:56:50.810Z,100231.47
2023-03-16T01:57:26.700Z,100226.03
2023-03-16T01:58:03.009Z,100220.88
2023-03-16T01:58:38.715Z,100225.78
2023-03-16T01:59:14.765Z,100225.78
2023-03-16T01:59:50.901Z,100231.22
2023-03-16T02:00:27.073Z,100232.03
2023-03-16T02:01:02.974Z,100232.84
2023-03-16T02:01:38.243Z,100241.00
2023-03-16T02:02:13.847Z,100230.66
2023-03-16T02:02:49.503Z,100232.84
2023-03-16T02:03:25.331Z,100233.66
2023-03-16T02:04:01.942Z,100230.94
2023-03-16T02:04:37.834Z,100230.13
2023-03-16T02:05:13.879Z,100230.66
2023-03-16T02:05:49.506Z,100224.41
2023-03-16T02:06:25.999Z,100228.22
2023-03-16T02:07:01.455Z,100234.47
2023-03-16T02:07:37.140Z,100232.84
2023-03-16T02:08:13.070Z,100223.88
2023-03-16T02:08:48.937Z,100232.31
2023-03-16T02:09:24.965Z,100231.22
2023-03-16T02:10:00.879Z,100232.59
2023-03-16T02:10:37.007Z,100239.66
2023-03-16T02:11:13.558Z,100235.03
2023-03-16T02:11:49.503Z,100236.41
2023-03-16T02:12:24.950Z,100226.31
2023-03-16T02:13:00.473Z,100232.59
2023-03-16T02:13:36.436Z,100233.41
2023-03-16T02:14:12.299Z,100233.41
2023-03-16T02:14:47.963Z,100231.22
2023-03-16T02:15:24.365Z,100227.97
2023-03-16T02:16:00.287Z,100220.06
2023-03-16T02:16:36.055Z,100223.59
2023-03-16T02:17:11.648Z,100218.97
2023-03-16T02:17:47.748Z,100222.78
2023-03-16T02:18:23.313Z,100217.88
2023-03-16T02:18:59.270Z,100214.34
2023-03-16T02:19:35.145Z,100219.78
2023-03-16T02:20:11.090Z,100211.91
2023-03-16T02:20:47.410Z,100215.72
2023-03-16T02:21:23.436Z,100213.53
2023-03-16T02:21:59.116Z,100215.97
2023-03-16T02:22:35.344Z,100214.34
2023-03-16T02:23:11.611Z,100208.91
2023-03-16T02:23:47.406Z,100208.34
2023-03-16T02:24:23.380Z,100208.91
2023-03-16T02:24:59.303Z,100208.09
2023-03-16T02:25:35.576Z,100211.91
2023-03-16T02:26:11.371Z,100205.38
2023-03-16T02:26:47.939Z,100208.91
2023-03-16T02:27:23.827Z,100205.09
2023-03-16T02:27:59.742Z,100204.28
2023-03-16T02:28:35.453Z,100202.38
2023-03-16T02:29:11.093Z,100194.22
2023-03-16T02:29:46.661Z,100203.19
2023-03-16T02:30:22.588Z,100198.81
2023-03-16T02:30:58.654Z,100204.53
2023-03-16T02:31:34.190Z,100199.63
2023-03-16T02:32:10.069Z,100203.47
2023-03-16T02:32:46.510Z,100207.00
2023-03-16T02:33:22.419Z,100204.53
2023-03-16T02:33:58.080Z,100195.28
2023-03-16T02:34:33.091Z,100198.56
2023-03-16T02:35:09.093Z,100194.22
2023-03-16T02:35:45.017Z,100195.84
2023-03-16T02:36:21.132Z,100198.00
2023-03-16T02:36:57.053Z,100194.19
2023-03-16T02:37:32.972Z,100192.56
2023-03-16T02:38:08.986Z,100192.28
2023-03-16T02:38:44.886Z,100191.75
2023-03-16T02:39:20.770Z,100193.91
2023-03-16T02:39:56.384Z,100189.84
2023-03-16T02:40:32.087Z,100191.47
2023-03-16T02:41:08.386Z,100194.22
2023-03-16T02:41:44.670Z,100187.94
2023-03-16T02:42:20.519Z,100190.66
2023-03-16T02:42:56.306Z,100192.56
2023-03-16T02:43:32.353Z,100196.91
2023-03-16T02:44:08.175Z,100194.72
2023-03-16T02:44:43.955Z,100185.22
2023-03-16T02:45:19.780Z,100196.63
2023-03-16T02:45:55.678Z,100193.09
2023-03-16T02:46:31.954Z,100195.56
2023-03-16T02:47:07.891Z,100192.00
2023-03-16T02:47:44.127Z,100194.72
2023-03-16T02:48:19.775Z,100188.19
2023-03-16T02:48:55.766Z,100184.09
2023-03-16T02:49:32.328Z,100187.09
2023-03-16T02:50:08.165Z,100185.19
2023-03-16T02:50:43.370Z,100178.94
2023-03-16T02:51:19.860Z,100184.38
2023-03-16T02:51:55.633Z,100182.47
2023-03-16T02:52:31.333Z,100184.66
2023-03-16T02:53:07.008Z,100186.28
2023-03-16T02:53:43.418Z,100185.47
2023-03-16T02:54:19.235Z,100186.28
2023-03-16T02:54:56.073Z,100187.38
2023-03-16T02:55:31.508Z,100178.94
2023-03-16T02:56:06.717Z,100171.88
2023-03-16T02:56:42.445Z,100180.84
2023-03-16T02:57:18.640Z,100171.59
2023-03-16T02:57:54.947Z,100180.56
2023-03-16T02:58:30.451Z,100177.31
2023-03-16T02:59:06.656Z,100180.84
2023-03-16T02:59:42.865Z,100177.84
2023-03-16T03:00:19.025Z,100183.56
2023-03-16T03:00:54.902Z,100182.47
2023-03-16T03:01:30.660Z,100182.75
2023-03-16T03:02:06.737Z,100180.59
2023-03-16T03:02:42.931Z,100176.78
2023-03-16T03:03:19.611Z,100176.78
2023-03-16T03:03:55.593Z,100182.22
2023-03-16T03:04:31.909Z,100177.31
2023-03-16T03:05:07.777Z,100172.97
2023-03-16T03:05:43.742Z,100180.84
2023-03-16T03:06:19.444Z,100184.09
2023-03-16T03:06:55.159Z,100176.47
2023-03-16T03:07:30.851Z,100174.03
2023-03-16T03:08:06.735Z,100174.56
2023-03-16T03:08:42.652Z,100176.75
2023-03-16T03:09:18.728Z,100172.69
2023-03-16T03:09:55.037Z,100170.22
2023-03-16T03:10:31.087Z,100170.22
2023-03-16T03:11:07.045Z,100175.66
2023-03-16T03:11:42.448Z,100174.56
2023-03-16T03:12:17.835Z,100174.84
2023-03-16T03:12:54.157Z,100171.59
2023-03-16T03:13:30.190Z,100174.03
2023-03-16T03:14:05.756Z,100168.88
2023-03-16T03:14:42.030Z,100172.69
2023-03-16T03:15:17.946Z,100170.78
2023-03-16T03:15:53.773Z,100181.66
2023-03-16T03:16:30.170Z,100171.88
2023-03-16T03:17:05.769Z,100171.59
2023-03-16T03:17:41.311Z,100168.31
2023-03-16T03:18:17.657Z,100177.84
2023-03-16T03:18:54.652Z,100180.03
2023-03-16T03:19:30.262Z,100171.59
2023-03-16T03:20:06.420Z,100181.94
2023-03-16T03:20:42.139Z,100177.03
2023-03-16T03:21:18.563Z,100178.94
2023-03-16T03:21:53.934Z,100177.28
2023-03-16T03:22:29.592Z,100181.09
2023-03-16T03:23:05.207Z,100174.84
2023-03-16T03:23:41.109Z,100168.59
2023-03-16T03:24:16.929Z,100172.69
2023-03-16T03:24:52.852Z,100178.94
2023-03-16T03:25:28.728Z,100169.69
2023-03-16T03:26:04.306Z,100169.69
2023-03-16T03:26:40.695Z,100175.13
2023-03-16T03:27:16.525Z,100169.69
2023-03-16T03:27:52.528Z,100169.41
2023-03-16T03:28:28.203Z,100166.97
2023-03-16T03:29:04.109Z,100165.88
2023-03-16T03:29:39.765Z,100171.31
2023-03-16T03:30:16.253Z,100167.78
2023-03-16T03:30:51.978Z,100160.69
2023-03-16T03:31:28.305Z,100163.97
2023-03-16T03:32:03.854Z,100160.97
2023-03-16T03:32:40.140Z,100160.16
2023-03-16T03:33:15.708Z,100150.88
2023-03-16T03:33:51.393Z,100156.88
2023-03-16T03:34:27.481Z,100147.91
2023-03-16T03:35:03.488Z,100144.91
2023-03-16T03:35:39.475Z,100152.78
2023-03-16T03:36:15.341Z,100145.72
2023-03-16T03:36:51.813Z,100147.63
2023-03-16T03:37:27.995Z,100149.78
2023-03-16T03:38:04.065Z,100152.50
2023-03-16T03:38:39.902Z,100151.97
2023-03-16T03:39:15.567Z,100152.78
2023-03-16T03:39:51.771Z,100159.59
2023-03-16T03:40:27.814Z,100149.78
2023-03-16T03:41:03.715Z,100159.88
2023-03-16T03:41:39.342Z,100149.78
2023-03-16T03:42:15.584Z,100153.31
2023-03-16T03:42:51.663Z,100153.31
2023-03-16T03:43:27.604Z,100158.78
2023-03-16T03:44:03.784Z,100147.88
2023-03-16T03:44:39.506Z,100151.69
2023-03-16T03:45:15.506Z,100152.50
2023-03-16T03:45:51.650Z,100153.59
2023-03-16T03:46:27.690Z,100150.06
2023-03-16T03:47:04.247Z,100145.16
2023-03-16T03:47:39.917Z,100144.63
2023-03-16T03:48:15.813Z,100153.06
2023-03-16T03:48:52.222Z,100146.78
2023-03-16T03:49:27.837Z,100145.16
2023-03-16T03:50:03.477Z,100145.16
2023-03-16T03:50:39.411Z,100146.25
2023-03-16T03:51:15.420Z,100142.44
2023-03-16T03:51:51.104Z,100149.78
2023-03-16T03:52:27.228Z,100144.06
2023-03-16T03:53:03.500Z,100140.81
2023-03-16T03:53:39.643Z,100140.53
2023-03-16T03:54:16.070Z,100147.88
2023-03-16T03:54:51.747Z,100153.06
2023-03-16T03:55:27.167Z,100149.50
2023-03-16T03:56:02.972Z,100147.59
2023-03-16T03:56:38.928Z,100148.69
2023-03-16T03:57:15.076Z,100148.69
2023-03-16T03:57:50.605Z,100150.06
2023-03-16T03:58:27.147Z,100148.16
2023-03-16T03:59:02.997Z,100144.34
2023-03-16T03:59:39.297Z,100143.00
2023-03-16T04:00:14.866Z,100139.19
2023-03-16T04:00:49.872Z,100136.19
2023-03-16T04:01:25.702Z,100141.91
2023-03-16T04:02:01.880Z,100139.19
2023-03-16T04:02:37.753Z,100139.19
2023-03-16T04:03:13.429Z,100142.44
2023-03-16T04:03:49.322Z,100140.81
2023-03-16T04:04:25.591Z,100134.53
2023-03-16T04:05:01.788Z,100146.81
2023-03-16T04:05:37.512Z,100139.47
2023-03-16T04:06:13.060Z,100135.91
2023-03-16T04:06:48.872Z,100137.53
2023-03-16T04:07:25.212Z,100139.19
2023-03-16T04:08:01.462Z,100137.81
2023-03-16T04:08:37.737Z,100137.28
2023-03-16T04:09:13.855Z,100137.81
2023-03-16T04:09:53.714Z,100142.75
2023-03-16T04:10:29.873Z,100139.19
2023-03-16T04:11:05.009Z,100138.38
2023-03-16T04:11:40.423Z,100137.56
2023-03-16T04:12:16.756Z,100138.66
2023-03-16T04:12:52.615Z,100139.75
2023-03-16T04:13:29.042Z,100147.91
2023-03-16T04:14:05.135Z,100144.09
2023-03-16T04:14:40.990Z,100141.09
2023-03-16T04:15:16.248Z,100142.19
2023-03-16T04:15:52.132Z,100140.56
2023-03-16T04:16:28.036Z,100139.47
2023-03-16T04:17:03.226Z,100139.19
2023-03-16T04:17:39.420Z,100138.66
2023-03-16T04:18:15.599Z,100128.59
2023-03-16T04:18:51.727Z,100131.31
2023-03-16T04:19:27.662Z,100127.78
2023-03-16T04:20:03.565Z,100129.41
2023-03-16T04:20:39.999Z,100125.06
2023-03-16T04:21:15.587Z,100130.22
2023-03-16T04:21:51.655Z,100134.03
2023-03-16T04:22:27.048Z,100129.94
2023-03-16T04:23:03.139Z,100121.22
2023-03-16T04:23:38.792Z,100131.03
2023-03-16T04:24:15.164Z,100127.22
2023-03-16T04:24:51.248Z,100126.41
2023-03-16T04:25:27.101Z,100120.97
2023-03-16T04:26:03.373Z,100120.69
2023-03-16T04:26:39.429Z,100126.41
2023-03-16T04:27:15.569Z,100131.56
2023-03-16T04:27:51.228Z,100126.66
2023-03-16T04:28:27.343Z,100121.50
2023-03-16T04:29:02.984Z,100120.69
2023-03-16T04:29:39.151Z,100115.22
2023-03-16T04:30:15.147Z,100116.31
2023-03-16T04:30:51.398Z,100116.59
2023-03-16T04:31:26.999Z,100122.88
2023-03-16T04:32:03.337Z,100124.78
2023-03-16T04:32:39.105Z,100110.88
2023-03-16T04:33:14.732Z,100126.41
2023-03-16T04:33:50.235Z,100125.59
2023-03-16T04:34:26.408Z,100124.50
2023-03-16T04:35:02.645Z,100117.41
2023-03-16T04:35:39.324Z,100119.03
2023-03-16T04:36:14.970Z,100121.22
2023-03-16T04:36:51.292Z,100107.63
2023-03-16T04:37:27.192Z,100116.31
2023-03-16T04:38:02.854Z,100113.59
2023-03-16T04:38:38.276Z,100115.22
2023-03-16T04:39:14.217Z,100108.97
2023-03-16T04:39:50.321Z,100112.78
2023-03-16T04:40:26.262Z,100118.50
2023-03-16T04:41:02.233Z,100111.13
2023-03-16T04:41:38.555Z,100124.22
2023-03-16T04:42:15.164Z,100114.13
2023-03-16T04:42:50.674Z,100112.78
2023-03-16T04:43:26.774Z,100107.06
2023-03-16T04:44:01.968Z,100108.16
2023-03-16T04:44:38.510Z,100109.78
2023-03-16T04:45:14.508Z,100105.44
2023-03-16T04:45:50.212Z,100107.06
2023-03-16T04:46:26.771Z,100102.19
2023-03-16T04:47:02.327Z,100100.56
2023-03-16T04:47:38.882Z,100102.72
2023-03-16T04:48:14.875Z,100091.28
2023-03-16T04:48:50.587Z,100105.19
2023-03-16T04:49:25.713Z,100110.88
2023-03-16T04:50:01.603Z,100094.53
2023-03-16T04:50:38.042Z,100109.25
2023-03-16T04:51:14.192Z,100103.00
2023-03-16T04:51:50.089Z,100100.28
2023-03-16T04:52:26.762Z,100108.44
2023-03-16T04:53:02.399Z,100100.00
2023-03-16T04:53:38.523Z,100103.81
2023-03-16T04:54:14.462Z,100104.91
2023-03-16T04:54:49.646Z,100103.00
2023-03-16T04:55:26.368Z,100104.38
2023-03-16T04:56:01.939Z,100101.91
2023-03-16T04:56:37.976Z,100096.72
2023-03-16T04:57:14.431Z,100089.66
2023-03-16T04:57:50.353Z,100095.91
2023-03-16T04:58:26.045Z,100091.28
2023-03-16T04:59:01.995Z,100100.56
2023-03-16T04:59:37.939Z,100095.38
2023-03-16T05:00:13.369Z,100101.09
2023-03-16T05:00:49.408Z,100095.38
2023-03-16T05:01:25.875Z,100083.97
2023-03-16T05:02:01.524Z,100080.97
2023-03-16T05:02:37.310Z,100092.91
2023-03-16T05:03:13.962Z,100085.03
2023-03-16T05:03:49.556Z,100097.00
2023-03-16T05:04:25.903Z,100087.75
2023-03-16T05:05:01.720Z,100092.66
2023-03-16T05:05:37.066Z,100085.31
2023-03-16T05:06:13.755Z,100092.38
2023-03-16T05:06:49.359Z,100082.59
2023-03-16T05:07:25.763Z,100090.75
2023-03-16T05:08:01.730Z,100082.06
2023-03-16T05:08:38.226Z,100085.31
2023-03-16T05:09:14.352Z,100090.47
2023-03-16T05:09:49.898Z,100089.66
2023-03-16T05:10:25.781Z,100089.13
2023-03-16T05:10:59.878Z,100084.78
2023-03-16T05:11:35.671Z,100077.97
2023-03-16T05:12:11.736Z,100076.59
2023-03-16T05:12:47.802Z,100079.31
2023-03-16T05:13:23.616Z,100076.88
2023-03-16T05:13:59.629Z,100081.78
2023-03-16T05:14:36.045Z,100078.78
2023-03-16T05:15:12.546Z,100084.25
2023-03-16T05:15:48.455Z,100083.97
2023-03-16T05:16:23.791Z,100070.63
2023-03-16T05:17:00.404Z,100082.06
2023-03-16T05:17:36.213Z,100079.31
2023-03-16T05:18:13.060Z,100083.13
2023-03-16T05:18:48.953Z,100082.31
2023-03-16T05:19:25.136Z,100076.88
2023-03-16T05:20:01.109Z,100073.34
2023-03-16T05:20:37.078Z,100070.63
2023-03-16T05:21:13.228Z,100071.97
2023-03-16T05:21:48.486Z,100082.06
2023-03-16T05:22:25.011Z,100082.59
2023-03-16T05:23:00.969Z,100068.44
2023-03-16T05:23:37.029Z,100071.97
2023-03-16T05:24:12.887Z,100075.50
2023-03-16T05:24:48.363Z,100077.41
2023-03-16T05:25:24.991Z,100073.63
2023-03-16T05:26:00.834Z,100074.69
2023-03-16T05:26:36.387Z,100068.44
2023-03-16T05:27:11.724Z,100076.59
2023-03-16T05:27:47.836Z,100071.44
2023-03-16T05:28:23.454Z,100066.00
2023-03-16T05:28:59.982Z,100064.09
2023-03-16T05:29:35.915Z,100067.38
2023-03-16T05:30:12.187Z,100060.56
2023-03-16T05:30:48.245Z,100064.38
2023-03-16T05:31:24.377Z,100062.75
2023-03-16T05:32:00.189Z,100066.28
2023-03-16T05:32:35.933Z,100058.09
2023-03-16T05:33:11.531Z,100060.84
2023-03-16T05:33:46.873Z,100058.09
2023-03-16T05:34:22.969Z,100069.00
2023-03-16T05:34:59.493Z,100065.72
2023-03-16T05:35:35.694Z,100063.00
2023-03-16T05:36:11.900Z,100067.91
2023-03-16T05:36:47.921Z,100063.81
2023-03-16T05:37:24.491Z,100070.09
2023-03-16T05:38:00.655Z,100066.00
2023-03-16T05:38:35.942Z,100068.16
2023-03-16T05:39:12.108Z,100067.63
2023-03-16T05:39:48.530Z,100078.78
2023-03-16T05:40:24.505Z,100073.34
2023-03-16T05:41:00.590Z,100079.59
2023-03-16T05:41:36.340Z,100076.59
2023-03-16T05:42:12.230Z,100079.88
2023-03-16T05:42:48.069Z,100077.69
2023-03-16T05:43:23.254Z,100079.31
2023-03-16T05:43:59.812Z,100068.72
2023-03-16T05:44:35.843Z,100077.69
2023-03-16T05:45:11.412Z,100077.97
2023-03-16T05:45:47.805Z,100071.72
2023-03-16T05:46:23.486Z,100069.56
2023-03-16T05:46:59.753Z,100072.28
2023-03-16T05:47:35.597Z,100066.56
2023-03-16T05:48:11.609Z,100068.19
2023-03-16T05:48:47.202Z,100074.19
2023-03-16T05:49:23.146Z,100067.13
2023-03-16T05:49:59.176Z,100068.47
2023-03-16T05:50:35.198Z,100069.00
2023-03-16T05:51:10.934Z,100075.53
2023-03-16T05:51:47.250Z,100077.97
2023-03-16T05:52:23.406Z,100073.63
2023-03-16T05:52:59.249Z,100074.72
2023-03-16T05:53:34.989Z,100064.38
2023-03-16T05:54:10.824Z,100069.00
2023-03-16T05:54:46.431Z,100072.81
2023-03-16T05:55:22.816Z,100066.00
2023-03-16T05:55:58.753Z,100069.00
2023-03-16T05:56:34.602Z,100076.63
2023-03-16T05:57:10.558Z,100073.09
2023-03-16T05:57:46.194Z,100075.00
2023-03-16T05:58:22.523Z,100074.19
2023-03-16T05:58:57.660Z,100077.72
2023-03-16T05:59:33.839Z,100077.72
2023-03-16T06:00:09.726Z,100084.78
2023-03-16T06:00:45.652Z,100082.31
2023-03-16T06:01:21.772Z,100084.50
2023-03-16T06:01:57.721Z,100088.06
2023-03-16T06:02:33.545Z,100084.78
2023-03-16T06:03:09.061Z,100078.25
2023-03-16T06:03:44.460Z,100080.72
2023-03-16T06:04:20.311Z,100085.88
2023-03-16T06:04:56.229Z,100094.59
2023-03-16T06:05:32.020Z,100093.50
2023-03-16T06:06:07.479Z,100087.50
2023-03-16T06:06:43.413Z,100090.25
2023-03-16T06:07:19.622Z,100078.25
2023-03-16T06:07:56.000Z,100083.13
2023-03-16T06:08:31.649Z,100085.59
2023-03-16T06:09:07.236Z,100085.88
2023-03-16T06:09:43.215Z,100089.97
2023-03-16T06:10:19.085Z,100079.88
2023-03-16T06:10:54.888Z,100081.50
2023-03-16T06:11:30.544Z,100084.50
2023-03-16T06:12:06.793Z,100078.50
2023-03-16T06:12:42.645Z,100086.41
2023-03-16T06:13:18.272Z,100081.00
2023-03-16T06:13:53.739Z,100076.63
2023-03-16T06:14:29.618Z,100089.16
2023-03-16T06:15:05.352Z,100089.97
2023-03-16T06:15:41.423Z,100091.34
2023-03-16T06:16:17.323Z,100082.88
2023-03-16T06:16:53.526Z,100085.59
2023-03-16T06:17:29.169Z,100093.78
2023-03-16T06:18:05.642Z,100091.88
2023-03-16T06:18:41.780Z,100094.59
2023-03-16T06:19:17.322Z,100085.88
2023-03-16T06:19:53.078Z,100089.69
2023-03-16T06:20:29.671Z,100088.34
2023-03-16T06:21:06.241Z,100080.16
2023-03-16T06:21:42.333Z,100088.34
2023-03-16T06:22:18.096Z,100084.25
2023-03-16T06:22:54.348Z,100088.06
2023-03-16T06:23:30.779Z,100085.34
2023-03-16T06:24:06.531Z,100083.97
2023-03-16T06:24:41.807Z,100081.53
2023-03-16T06:25:18.018Z,100077.72
2023-03-16T06:25:54.131Z,100084.78
2023-03-16T06:26:30.216Z,100085.88
2023-03-16T06:27:05.853Z,100085.59
2023-03-16T06:27:42.383Z,100077.44
2023-03-16T06:28:18.314Z,100094.06
2023-03-16T06:28:54.221Z,100096.78
2023-03-16T06:29:30.325Z,100082.63
2023-03-16T06:30:06.188Z,100081.53
2023-03-16T06:30:41.805Z,100086.16
2023-03-16T06:31:18.131Z,100083.44
2023-03-16T06:31:53.886Z,100087.50
2023-03-16T06:32:30.287Z,100087.78
2023-03-16T06:33:06.247Z,100084.78
2023-03-16T06:33:41.749Z,100092.97
2023-03-16T06:34:17.938Z,100094.31
2023-03-16T06:34:53.868Z,100089.16
2023-03-16T06:35:29.448Z,100091.59
2023-03-16T06:36:05.246Z,100093.78
2023-03-16T06:36:41.171Z,100088.06
2023-03-16T06:37:17.172Z,100078.25
2023-03-16T06:37:53.659Z,100097.88
2023-03-16T06:38:29.385Z,100087.78
2023-03-16T06:39:04.802Z,100093.25
2023-03-16T06:39:41.370Z,100077.72
2023-03-16T06:40:17.558Z,100083.44
2023-03-16T06:40:52.889Z,100086.97
2023-03-16T06:41:28.929Z,100089.69
2023-03-16T06:42:05.115Z,100079.91
2023-03-16T06:42:41.204Z,100075.28
2023-03-16T06:43:17.311Z,100072.56
2023-03-16T06:43:53.383Z,100082.63
2023-03-16T06:44:29.507Z,100085.34
2023-03-16T06:45:05.390Z,100085.34
2023-03-16T06:45:41.347Z,100072.28
2023-03-16T06:46:16.694Z,100076.09
2023-03-16T06:46:53.257Z,100082.91
2023-03-16T06:47:29.491Z,100082.63
2023-03-16T06:48:05.342Z,100077.72
2023-03-16T06:48:41.353Z,100082.34
2023-03-16T06:49:17.042Z,100065.75
2023-03-16T06:49:52.920Z,100068.75
2023-03-16T06:50:29.468Z,100089.69